createdAt,value
2022-11-29T00:00:33.513Z,12.43
2022-11-29T00:03:00.499Z,13.13
2022-11-29T00:05:27.970Z,14.55
2022-11-29T00:07:54.877Z,9.55
2022-11-29T00:10:21.722Z,12.50
2022-11-29T00:12:48.534Z,11.00
2022-11-29T00:15:15.394Z,14.32
2022-11-29T00:17:42.150Z,12.68
2022-11-29T00:20:11.819Z,12.63
2022-11-29T00:22:38.937Z,16.88
2022-11-29T00:25:06.441Z,12.73
2022-11-29T00:27:33.299Z,11.82
2022-11-29T00:30:00.075Z,12.38
2022-11-29T00:32:26.885Z,14.60
2022-11-29T00:34:53.673Z,13.23
2022-11-29T00:37:20.409Z,14.23
2022-11-29T00:39:47.153Z,15.85
2022-11-29T00:42:15.575Z,16.33
2022-11-29T00:44:42.691Z,12.35
2022-11-29T00:47:09.962Z,13.38
2022-11-29T00:49:36.827Z,14.07
2022-11-29T00:52:03.630Z,14.43
2022-11-29T00:54:30.475Z,15.18
2022-11-29T00:56:57.305Z,17.15
2022-11-29T00:59:24.118Z,14.57
2022-11-29T01:01:50.957Z,13.55
2022-11-29T01:04:17.957Z,13.40
2022-11-29T01:06:44.726Z,13.25
2022-11-29T01:09:11.492Z,12.93
2022-11-29T01:11:38.357Z,14.52
2022-11-29T01:14:05.212Z,16.67
2022-11-29T01:16:32.722Z,13.18
2022-11-29T01:19:00.553Z,16.65
2022-11-29T01:21:27.628Z,17.52
2022-11-29T01:23:54.556Z,14.60
2022-11-29T01:26:22.914Z,17.88
2022-11-29T01:28:50.634Z,15.90
2022-11-29T01:31:18.921Z,15.70
2022-11-29T01:33:46.046Z,19.58
2022-11-29T01:36:14.061Z,15.13
2022-11-29T01:38:42.431Z,15.93
2022-11-29T01:41:11.912Z,15.95
2022-11-29T01:43:54.240Z,14.52
2022-11-29T01:46:21.123Z,19.13
2022-11-29T01:48:48.075Z,17.13
2022-11-29T01:51:15.174Z,17.85
2022-11-29T01:53:42.002Z,17.38
2022-11-29T01:56:09.357Z,15.18
2022-11-29T01:58:36.367Z,18.23
2022-11-29T02:01:03.249Z,13.57
2022-11-29T02:03:30.060Z,16.30
2022-11-29T02:05:56.914Z,17.70
2022-11-29T02:08:26.157Z,17.83
2022-11-29T02:10:55.998Z,17.38
2022-11-29T02:13:26.082Z,14.80
2022-11-29T02:16:01.295Z,15.70
2022-11-29T02:18:31.130Z,16.35
2022-11-29T02:20:57.918Z,13.77
2022-11-29T02:23:33.917Z,14.20
2022-11-29T02:26:19.425Z,15.05
2022-11-29T02:29:04.896Z,13.13
2022-11-29T02:31:31.696Z,18.25
2022-11-29T02:34:07.425Z,14.25
2022-11-29T02:36:34.352Z,16.13
2022-11-29T02:39:20.067Z,17.88
2022-11-29T02:41:56.125Z,15.95
2022-11-29T02:44:41.895Z,16.33
2022-11-29T02:47:41.462Z,18.33
2022-11-29T02:50:14.301Z,16.30
2022-11-29T02:52:58.842Z,15.20
2022-11-29T02:55:37.709Z,15.70
2022-11-29T02:58:16.937Z,15.82
2022-11-29T03:00:51.540Z,19.35
2022-11-29T03:03:25.069Z,13.20
2022-11-29T03:06:10.612Z,14.65
2022-11-29T03:08:52.036Z,18.00
2022-11-29T03:11:31.070Z,15.43
2022-11-29T03:14:10.153Z,17.25
2022-11-29T03:16:43.337Z,16.60
2022-11-29T03:19:22.908Z,14.38
2022-11-29T03:22:13.071Z,17.60
2022-11-29T03:24:39.805Z,18.13
2022-11-29T03:27:12.742Z,16.88
2022-11-29T03:29:42.591Z,18.98
2022-11-29T03:32:28.369Z,15.55
2022-11-29T03:35:07.833Z,15.75
2022-11-29T03:37:46.636Z,15.40
2022-11-29T03:40:17.074Z,17.60
2022-11-29T03:42:56.760Z,17.05
2022-11-29T03:45:42.356Z,15.90
2022-11-29T03:48:09.153Z,14.98
2022-11-29T03:50:41.723Z,13.88
2022-11-29T03:53:17.182Z,15.65
2022-11-29T03:55:54.647Z,15.85
2022-11-29T03:58:42.394Z,15.00
2022-11-29T04:01:21.896Z,18.70
2022-11-29T04:03:48.694Z,16.80
2022-11-29T04:06:20.407Z,19.73
2022-11-29T04:09:06.099Z,15.75
2022-11-29T04:11:54.749Z,17.73
2022-11-29T04:14:31.331Z,14.52
2022-11-29T04:16:58.062Z,15.38
2022-11-29T04:19:37.384Z,13.02
2022-11-29T04:22:04.608Z,17.17
2022-11-29T04:24:50.186Z,19.20
2022-11-29T04:27:37.216Z,15.25
2022-11-29T04:30:07.044Z,12.40
2022-11-29T04:32:52.608Z,15.32
2022-11-29T04:35:25.613Z,12.95
2022-11-29T04:37:58.637Z,13.20
2022-11-29T04:40:44.250Z,11.40
2022-11-29T04:43:11.012Z,13.40
2022-11-29T04:45:49.238Z,11.98
2022-11-29T04:48:15.997Z,11.70
2022-11-29T04:50:58.813Z,13.23
2022-11-29T04:53:30.822Z,13.48
2022-11-29T04:56:06.803Z,14.38
2022-11-29T04:58:40.959Z,19.45
2022-11-29T05:01:07.734Z,14.85
2022-11-29T05:03:37.085Z,14.38
2022-11-29T05:06:23.456Z,13.82
2022-11-29T05:09:02.438Z,15.93
2022-11-29T05:11:55.637Z,18.13
2022-11-29T05:14:41.592Z,15.82
2022-11-29T05:17:08.438Z,14.38
2022-11-29T05:19:38.025Z,15.48
2022-11-29T05:22:22.573Z,14.07
2022-11-29T05:24:53.127Z,16.27
2022-11-29T05:27:23.033Z,11.50
2022-11-29T05:29:56.022Z,15.20
2022-11-29T05:32:30.284Z,13.88
2022-11-29T05:34:57.111Z,13.52
2022-11-29T05:37:42.669Z,15.60
2022-11-29T05:40:38.886Z,12.63
2022-11-29T05:43:34.814Z,15.85
2022-11-29T05:46:07.560Z,15.48
2022-11-29T05:48:45.159Z,18.27
2022-11-29T05:51:14.924Z,15.30
2022-11-29T05:54:00.977Z,13.75
2022-11-29T05:56:43.141Z,17.25
2022-11-29T05:59:12.844Z,21.40
2022-11-29T06:01:42.516Z,16.38
2022-11-29T06:04:17.861Z,13.88
2022-11-29T06:06:48.006Z,16.95
2022-11-29T06:09:28.117Z,14.40
2022-11-29T06:12:05.331Z,15.63
2022-11-29T06:14:32.234Z,13.85
2022-11-29T06:17:18.683Z,18.52
2022-11-29T06:19:45.473Z,17.27
2022-11-29T06:22:21.454Z,13.32
2022-11-29T06:24:48.822Z,15.13
2022-11-29T06:27:22.396Z,16.70
2022-11-29T06:29:58.863Z,17.13
2022-11-29T06:32:31.991Z,16.63
2022-11-29T06:35:09.258Z,15.18
2022-11-29T06:37:40.699Z,15.68
2022-11-29T06:40:12.735Z,15.13
2022-11-29T06:42:39.490Z,15.85
2022-11-29T06:45:06.633Z,15.48
2022-11-29T06:47:36.525Z,14.25
2022-11-29T06:50:08.582Z,14.13
2022-11-29T06:52:42.217Z,12.43
2022-11-29T06:55:19.780Z,15.05
2022-11-29T06:57:49.671Z,16.85
2022-11-29T07:00:19.594Z,16.90
2022-11-29T07:02:46.361Z,18.10
2022-11-29T07:05:13.128Z,19.35
2022-11-29T07:07:41.297Z,13.73
2022-11-29T07:10:15.089Z,19.38
2022-11-29T07:12:42.203Z,17.52
2022-11-29T07:15:12.931Z,14.88
2022-11-29T07:17:43.846Z,19.73
2022-11-29T07:20:18.004Z,18.92
2022-11-29T07:23:03.426Z,17.38
2022-11-29T07:25:35.947Z,16.88
2022-11-29T07:28:21.623Z,18.15
2022-11-29T07:30:52.392Z,17.83
2022-11-29T07:33:27.273Z,21.95
2022-11-29T07:36:09.396Z,16.23
2022-11-29T07:38:48.440Z,17.98
2022-11-29T07:41:35.477Z,16.35
2022-11-29T07:44:20.638Z,17.13
2022-11-29T07:46:47.635Z,19.98
2022-11-29T07:49:14.563Z,17.55
2022-11-29T07:51:41.379Z,18.80
2022-11-29T07:54:09.753Z,16.98
2022-11-29T07:56:36.523Z,19.85
2022-11-29T07:59:03.391Z,16.90
2022-11-29T08:01:31.104Z,18.70
2022-11-29T08:03:57.884Z,17.20
2022-11-29T08:06:25.839Z,17.65
2022-11-29T08:08:52.579Z,17.95
2022-11-29T08:11:19.391Z,19.15
2022-11-29T08:13:46.197Z,15.32
2022-11-29T08:16:17.392Z,17.27
2022-11-29T08:18:44.767Z,16.52
2022-11-29T08:21:11.754Z,16.85
2022-11-29T08:23:38.597Z,18.35
2022-11-29T08:26:05.398Z,19.83
2022-11-29T08:28:32.566Z,15.73
2022-11-29T08:31:03.559Z,17.77
2022-11-29T08:33:30.377Z,17.75
2022-11-29T08:36:03.602Z,15.88
2022-11-29T08:38:30.425Z,16.33
2022-11-29T08:41:00.650Z,19.08
2022-11-29T08:43:27.450Z,17.35
2022-11-29T08:45:54.264Z,17.98
2022-11-29T08:48:21.077Z,18.17
2022-11-29T08:50:51.979Z,22.90
2022-11-29T08:53:37.535Z,20.90
2022-11-29T08:56:23.616Z,18.40
2022-11-29T08:58:51.254Z,20.20
2022-11-29T09:01:18.751Z,17.63
2022-11-29T09:04:03.069Z,18.35
2022-11-29T09:06:31.871Z,18.42
2022-11-29T09:08:59.399Z,17.88
2022-11-29T09:11:26.747Z,20.42
2022-11-29T09:13:55.007Z,19.35
2022-11-29T09:16:23.361Z,21.05
2022-11-29T09:18:52.034Z,23.02
2022-11-29T09:21:19.517Z,20.13
2022-11-29T09:23:46.301Z,19.55
2022-11-29T09:26:16.852Z,18.90
2022-11-29T09:28:43.806Z,18.83
2022-11-29T09:31:12.744Z,23.58
2022-11-29T09:33:39.977Z,18.70
2022-11-29T09:36:07.546Z,18.15
2022-11-29T09:38:34.932Z,21.65
2022-11-29T09:41:20.665Z,21.70
2022-11-29T09:44:06.007Z,24.60
2022-11-29T09:46:42.448Z,19.23
2022-11-29T09:49:18.322Z,18.50
2022-11-29T09:51:48.132Z,19.92
2022-11-29T09:54:27.690Z,17.70
2022-11-29T09:56:55.833Z,18.35
2022-11-29T09:59:43.422Z,19.95
2022-11-29T10:02:28.380Z,19.80
2022-11-29T10:04:59.178Z,16.92
2022-11-29T10:07:46.372Z,15.48
2022-11-29T10:10:13.166Z,17.33
2022-11-29T10:12:46.539Z,15.10
2022-11-29T10:15:22.853Z,14.70
2022-11-29T10:18:02.327Z,14.40
2022-11-29T10:20:34.289Z,16.60
2022-11-29T10:23:23.540Z,17.88
2022-11-29T10:25:51.704Z,17.05
2022-11-29T10:28:23.925Z,13.77
2022-11-29T10:30:53.245Z,15.93
2022-11-29T10:33:30.702Z,16.45
2022-11-29T10:35:59.495Z,14.90
2022-11-29T10:38:31.122Z,21.20
2022-11-29T10:41:01.761Z,19.08
2022-11-29T10:43:28.554Z,18.90
2022-11-29T10:45:56.448Z,20.52
2022-11-29T10:48:31.714Z,16.85
2022-11-29T10:50:58.738Z,18.60
2022-11-29T10:53:26.856Z,18.13
2022-11-29T10:56:00.529Z,18.20
2022-11-29T10:58:29.015Z,18.00
2022-11-29T11:01:06.833Z,22.15
2022-11-29T11:03:33.900Z,16.20
2022-11-29T11:06:00.740Z,16.25
2022-11-29T11:08:27.916Z,19.27
2022-11-29T11:11:00.126Z,18.20
2022-11-29T11:13:30.188Z,19.73
2022-11-29T11:15:58.834Z,18.23
2022-11-29T11:18:28.432Z,19.20
2022-11-29T11:20:59.798Z,18.98
2022-11-29T11:23:29.185Z,19.17
2022-11-29T11:26:09.909Z,18.65
2022-11-29T11:28:42.557Z,20.25
2022-11-29T11:31:10.742Z,19.50
2022-11-29T11:33:38.971Z,22.92
2022-11-29T11:36:22.405Z,21.25
2022-11-29T11:39:09.132Z,19.25
2022-11-29T11:41:56.888Z,18.88
2022-11-29T11:44:46.578Z,22.38
2022-11-29T11:47:15.540Z,20.70
2022-11-29T11:49:50.137Z,21.30
2022-11-29T11:52:22.160Z,20.85
2022-11-29T11:54:54.578Z,20.85
2022-11-29T11:57:22.429Z,25.50
2022-11-29T11:59:53.476Z,18.83
2022-11-29T12:02:26.735Z,21.17
2022-11-29T12:04:58.878Z,18.52
2022-11-29T12:07:59.801Z,21.30
2022-11-29T12:10:20.588Z,17.35
2022-11-29T12:12:49.225Z,18.55
2022-11-29T12:15:19.032Z,21.50
2022-11-29T12:17:55.075Z,18.85
2022-11-29T12:20:31.434Z,17.20
2022-11-29T12:23:19.497Z,19.75
2022-11-29T12:25:52.290Z,17.77
2022-11-29T12:28:20.775Z,19.55
2022-11-29T12:30:54.815Z,20.52
2022-11-29T12:33:40.517Z,23.58
2022-11-29T12:36:19.628Z,19.08
2022-11-29T12:38:56.002Z,22.02
2022-11-29T12:41:29.570Z,16.70
2022-11-29T12:44:10.717Z,16.55
2022-11-29T12:46:38.591Z,19.92
2022-11-29T12:49:08.460Z,21.17
2022-11-29T12:51:41.599Z,19.08
2022-11-29T12:54:26.972Z,19.02
2022-11-29T12:56:53.767Z,20.08
2022-11-29T12:59:59.248Z,19.20
2022-11-29T13:02:34.928Z,17.25
2022-11-29T13:05:04.658Z,19.95
2022-11-29T13:07:37.786Z,17.88
2022-11-29T13:10:07.629Z,18.67
2022-11-29T13:12:37.021Z,19.08
2022-11-29T13:15:06.911Z,18.05
2022-11-29T13:17:42.965Z,19.83
2022-11-29T13:20:09.762Z,17.58
2022-11-29T13:22:46.000Z,19.27
2022-11-29T13:25:18.671Z,19.95
2022-11-29T13:28:05.954Z,17.35
2022-11-29T13:30:34.473Z,19.33
2022-11-29T13:33:01.203Z,19.20
2022-11-29T13:35:35.182Z,16.02
2022-11-29T13:38:07.352Z,19.95
2022-11-29T13:40:38.694Z,21.45
2022-11-29T13:43:15.570Z,19.55
2022-11-29T13:45:47.095Z,21.30
2022-11-29T13:50:41.730Z,19.33
2022-11-29T13:53:22.782Z,19.60
2022-11-29T13:56:02.512Z,19.55
2022-11-29T13:58:29.409Z,17.50
2022-11-29T14:01:00.688Z,20.05
2022-11-29T14:03:32.649Z,16.17
2022-11-29T14:06:02.486Z,16.15
2022-11-29T14:08:54.696Z,16.25
2022-11-29T14:11:38.383Z,17.85
2022-11-29T14:14:09.985Z,17.05
2022-11-29T14:19:23.923Z,13.00
2022-11-29T14:22:03.176Z,18.08
2022-11-29T14:24:36.155Z,16.75
2022-11-29T14:27:05.922Z,17.42
2022-11-29T14:29:48.362Z,19.58
2022-11-29T14:32:35.413Z,19.20
2022-11-29T14:35:09.191Z,17.85
2022-11-29T14:37:54.556Z,18.48
2022-11-29T14:40:21.373Z,21.27
2022-11-29T14:42:48.679Z,19.83
2022-11-29T14:45:26.415Z,22.27
2022-11-29T14:47:53.377Z,17.40
2022-11-29T14:50:33.901Z,18.80
2022-11-29T14:53:01.202Z,14.65
2022-11-29T14:55:30.335Z,22.48
2022-11-29T14:57:57.133Z,18.92
2022-11-29T15:00:23.895Z,16.98
2022-11-29T15:02:50.735Z,16.33
2022-11-29T15:05:24.407Z,16.40
2022-11-29T15:08:06.334Z,18.95
2022-11-29T15:10:35.474Z,20.92
2022-11-29T15:13:04.004Z,17.85
2022-11-29T15:16:08.903Z,20.63
2022-11-29T15:18:41.957Z,19.33
2022-11-29T15:21:08.846Z,18.88
2022-11-29T15:23:42.714Z,17.65
2022-11-29T15:26:20.434Z,16.60
2022-11-29T15:28:47.412Z,20.13
2022-11-29T15:31:17.977Z,19.40
2022-11-29T15:33:47.234Z,19.65
2022-11-29T15:36:18.975Z,19.85
2022-11-29T15:38:47.416Z,21.75
2022-11-29T15:41:23.434Z,23.25
2022-11-29T15:43:52.513Z,20.13
2022-11-29T15:46:27.126Z,18.10
2022-11-29T15:48:54.461Z,19.13
2022-11-29T15:51:31.184Z,23.20
2022-11-29T15:54:12.628Z,25.58
2022-11-29T15:56:42.734Z,20.77
2022-11-29T15:59:14.777Z,22.45
2022-11-29T16:01:43.532Z,25.58
2022-11-29T16:04:15.103Z,22.60
2022-11-29T16:06:42.493Z,22.52
2022-11-29T16:09:17.670Z,24.13
2022-11-29T16:11:45.426Z,23.73
2022-11-29T16:14:16.647Z,20.67
2022-11-29T16:16:45.412Z,24.75
2022-11-29T16:19:18.343Z,26.40
2022-11-29T16:21:45.285Z,19.92
2022-11-29T16:24:13.902Z,24.13
2022-11-29T16:26:43.833Z,22.55
2022-11-29T16:29:21.191Z,19.38
2022-11-29T16:31:48.049Z,22.75
2022-11-29T16:34:20.338Z,23.45
2022-11-29T16:36:47.208Z,22.90
2022-11-29T16:39:19.307Z,23.17
2022-11-29T16:42:01.232Z,26.05
2022-11-29T16:44:51.025Z,22.50
2022-11-29T16:47:18.961Z,22.35
2022-11-29T16:49:45.897Z,17.77
2022-11-29T16:52:25.554Z,28.55
2022-11-29T16:54:52.369Z,19.55
2022-11-29T16:57:19.206Z,23.10
2022-11-29T16:59:46.688Z,26.23
2022-11-29T17:02:14.295Z,26.67
2022-11-29T17:04:41.463Z,25.63
2022-11-29T17:07:09.104Z,29.10
2022-11-29T17:09:35.945Z,22.33
2022-11-29T17:12:02.870Z,24.08
2022-11-29T17:14:29.949Z,23.58
2022-11-29T17:16:56.809Z,25.13
2022-11-29T17:19:24.229Z,22.15
2022-11-29T17:21:51.996Z,27.63
2022-11-29T17:24:19.396Z,24.45
2022-11-29T17:26:46.216Z,26.02
2022-11-29T17:29:14.494Z,27.15
2022-11-29T17:31:42.766Z,30.02
2022-11-29T17:34:09.584Z,25.27
2022-11-29T17:36:36.573Z,27.90
2022-11-29T17:39:04.040Z,29.55
2022-11-29T17:41:32.526Z,27.35
2022-11-29T17:43:59.661Z,27.27
2022-11-29T17:46:27.883Z,23.60
2022-11-29T17:48:54.983Z,26.90
2022-11-29T17:51:50.586Z,26.80
2022-11-29T17:54:11.245Z,22.95
2022-11-29T17:56:38.082Z,25.33
2022-11-29T17:59:05.298Z,23.15
2022-11-29T18:01:33.640Z,26.48
2022-11-29T18:04:01.540Z,25.38
2022-11-29T18:06:30.110Z,25.65
2022-11-29T18:08:57.997Z,23.60
2022-11-29T18:11:24.886Z,18.20
2022-11-29T18:13:52.719Z,20.08
2022-11-29T18:16:20.852Z,20.90
2022-11-29T18:18:48.123Z,21.30
2022-11-29T18:21:14.959Z,19.20
2022-11-29T18:23:42.883Z,18.33
2022-11-29T18:26:16.590Z,18.02
2022-11-29T18:28:43.936Z,17.70
2022-11-29T18:31:12.495Z,18.90
2022-11-29T18:33:40.269Z,20.30
2022-11-29T18:36:12.076Z,24.67
2022-11-29T18:38:39.995Z,23.05
2022-11-29T18:41:07.735Z,21.02
2022-11-29T18:43:34.876Z,22.38
2022-11-29T18:46:09.003Z,26.77
2022-11-29T18:48:36.464Z,23.90
2022-11-29T18:51:04.496Z,26.40
2022-11-29T18:53:34.773Z,20.20
2022-11-29T18:56:02.212Z,23.98
2022-11-29T18:58:28.985Z,26.25
2022-11-29T19:01:02.237Z,25.58
2022-11-29T19:03:29.049Z,26.10
2022-11-29T19:05:55.860Z,27.05
2022-11-29T19:08:22.813Z,26.83
2022-11-29T19:10:49.630Z,24.65
2022-11-29T19:13:16.397Z,24.02
2022-11-29T19:15:43.297Z,25.88
2022-11-29T19:18:10.100Z,25.33
2022-11-29T19:20:36.889Z,24.67
2022-11-29T19:23:03.680Z,26.10
2022-11-29T19:25:33.796Z,25.88
2022-11-29T19:28:00.601Z,25.08
2022-11-29T19:30:27.458Z,21.55
2022-11-29T19:32:54.256Z,25.17
2022-11-29T19:35:20.988Z,21.65
2022-11-29T19:37:47.797Z,25.33
2022-11-29T19:40:14.673Z,23.13
2022-11-29T19:42:41.506Z,22.10
2022-11-29T19:45:17.158Z,23.08
2022-11-29T19:47:44.693Z,26.27
2022-11-29T19:50:11.483Z,22.92
2022-11-29T19:52:38.334Z,24.00
2022-11-29T19:55:08.950Z,23.70
2022-11-29T19:57:36.023Z,24.23
2022-11-29T20:00:04.123Z,23.92
2022-11-29T20:02:30.951Z,29.70
2022-11-29T20:04:58.249Z,29.20
2022-11-29T20:07:25.106Z,29.95
2022-11-29T20:09:51.922Z,26.52
2022-11-29T20:12:18.715Z,27.20
2022-11-29T20:14:45.513Z,29.05
2022-11-29T20:17:12.328Z,25.88
2022-11-29T20:19:39.191Z,27.85
2022-11-29T20:22:06.010Z,25.33
2022-11-29T20:24:39.044Z,24.23
2022-11-29T20:27:08.191Z,29.45
2022-11-29T20:29:37.895Z,25.15
2022-11-29T20:32:04.771Z,26.35
2022-11-29T20:34:31.760Z,24.70
2022-11-29T20:37:16.993Z,24.50
2022-11-29T20:39:57.107Z,23.00
2022-11-29T20:42:44.679Z,22.58
2022-11-29T20:45:15.507Z,21.65
2022-11-29T20:48:01.322Z,23.50
2022-11-29T20:50:29.757Z,29.48
2022-11-29T20:53:07.074Z,35.83
2022-11-29T20:55:36.129Z,34.33
2022-11-29T20:58:02.909Z,31.38
2022-11-29T21:00:29.694Z,29.35
2022-11-29T21:02:56.860Z,30.45
2022-11-29T21:05:23.779Z,31.95
2022-11-29T21:07:50.589Z,33.30
2022-11-29T21:10:19.345Z,33.20
2022-11-29T21:12:46.225Z,27.70
2022-11-29T21:15:14.189Z,31.73
2022-11-29T21:17:42.287Z,28.60
2022-11-29T21:20:16.140Z,32.50
2022-11-29T21:22:47.804Z,27.25
2022-11-29T21:25:14.569Z,29.20
2022-11-29T21:27:41.566Z,26.83
2022-11-29T21:30:18.881Z,28.05
2022-11-29T21:32:46.151Z,26.20
2022-11-29T21:35:13.727Z,26.17
2022-11-29T21:37:43.879Z,29.73
2022-11-29T21:40:11.365Z,31.77
2022-11-29T21:42:38.140Z,31.25
2022-11-29T21:45:09.219Z,31.77
2022-11-29T21:47:40.223Z,30.15
2022-11-29T21:50:07.418Z,32.55
2022-11-29T21:52:34.279Z,30.98
2022-11-29T21:55:01.066Z,26.23
2022-11-29T21:57:27.870Z,25.73
2022-11-29T21:59:54.720Z,25.38
2022-11-29T22:02:21.606Z,26.90
2022-11-29T22:04:48.849Z,23.73
2022-11-29T22:07:15.709Z,25.83
2022-11-29T22:09:42.461Z,28.02
2022-11-29T22:12:31.818Z,24.15
2022-11-29T22:14:56.036Z,32.75
2022-11-29T22:17:22.847Z,30.63
2022-11-29T22:19:49.655Z,28.85
2022-11-29T22:22:16.410Z,31.92
2022-11-29T22:24:45.217Z,29.35
2022-11-29T22:27:12.479Z,30.45
2022-11-29T22:29:39.250Z,30.65
2022-11-29T22:32:06.337Z,31.98
2022-11-29T22:34:35.713Z,32.08
2022-11-29T22:37:02.460Z,28.73
2022-11-29T22:39:29.252Z,29.15
2022-11-29T22:41:56.028Z,27.92
2022-11-29T22:44:23.492Z,31.45
2022-11-29T22:46:50.832Z,23.40
2022-11-29T22:49:17.717Z,66.93
2022-11-29T22:51:44.488Z,45.80
2022-11-29T22:54:11.894Z,40.05
2022-11-29T22:56:39.838Z,33.40
2022-11-29T22:59:06.716Z,33.95
2022-11-29T23:01:35.258Z,49.78
2022-11-29T23:04:04.088Z,40.33
2022-11-29T23:06:33.104Z,36.13
2022-11-29T23:09:04.639Z,32.10
2022-11-29T23:11:31.794Z,33.30
2022-11-29T23:13:58.578Z,29.98
2022-11-29T23:16:26.315Z,30.60
2022-11-29T23:18:54.012Z,34.42
2022-11-29T23:21:28.391Z,36.35
2022-11-29T23:23:56.773Z,36.00
2022-11-29T23:26:25.442Z,30.83
2022-11-29T23:28:52.810Z,29.13
2022-11-29T23:31:20.339Z,37.03
2022-11-29T23:33:47.648Z,33.70
2022-11-29T23:36:14.944Z,33.00
2022-11-29T23:38:41.782Z,29.33
2022-11-29T23:41:09.749Z,33.85
2022-11-29T23:43:37.235Z,33.63
2022-11-29T23:46:14.658Z,31.45
2022-11-29T23:48:42.196Z,33.60
2022-11-29T23:51:09.054Z,28.00
2022-11-29T23:53:35.928Z,29.45
2022-11-29T23:56:04.899Z,30.23
2022-11-29T23:58:32.169Z,28.60
